< < Back
Terminal Aerodrome Forecast


Current Version              Previous Versions:   1  2  3  4  5  6  7  8  9  

Terminal Aerodrome Forecast

969
FTUS42 KCHS 191500 AAB
TAFCHS
TAF AMD
KCHS 191545Z 1916/2012 02009KT 6SM -DZ BR OVC005
     FM200000 01013G22KT 6SM BR VCSH OVC006
     FM200800 01014G24KT 6SM BR SCT006 BKN010=



Latest METAR

049
SAUS80 KWBC 192000 RRA
MTRCHS
METAR KCHS 191956Z 36010KT 10SM OVC007 16/13 A2998 RMK AO2 DZE15 SLP152
P0000 T01610133


USA.gov is the U.S. government's official web portal to all federal, state and local government web resources and services.